Rock Hill, SC

08:29 AM EDT on Ιούλιος 02, 2015 (GMT -0400)
Winthrop University | | Change Station
CLOSE
Current Station
Personal Weather Stations
Location: Rock Hill, SC
Elevation: 665 ft
Nearby Weather Stations

Elev 665 ft 34.94 °N, 81.03 °W | Updated 13 seconds ago

Νεφοσκεπής
Νεφοσκεπής
72.3 ° F
Feels Like 73 ° F
N
0.0
Ανεμος Μεταβλητός Ανεμος from ΝΔ
Gusts 0.0 mph

Σήμερα
High -- | Low -- ° F
--% Chance of Precip.
Yesterday
High -- | Low -- ° F
Precip. -- in
6:14 AM 8:41 PM
Πανσέληνος, 100% visible
Ατμοσφαιρική Πίεση 29.95 in
Ορατότητα 7.0 Μίλια
Σύννεφα Few 7500 ft
Νεφελώδης 10000 ft
Νεφοσκεπής 12000 ft
Δείκτης Δυσφορίας 73 ° F
Σημείο Δρόσου 65 ° F
Υγρασία 79%
Rainfall 0.00 in
Snow Depth Not available.
Υπεριώδης ακτινοβολία (UV) 0 out of 12
Pollen 1.40 out of 12
Air Quality Not available.
Flu Activity Not available.
METAR KUZA 021154Z AUTO 23008KT 7SM FEW075 BKN100 OVC120 22/19 A2999 RMK AO2 SLP142 T02220189 10233 20217 53011

More Conditions Fewer Conditions

Ατμοσφαιρική Πίεση 29.95 in
Ορατότητα 7.0 Μίλια
Σύννεφα Few 7500 ft
Νεφελώδης 10000 ft
Νεφοσκεπής 12000 ft
Δείκτης Δυσφορίας 73 ° F
Σημείο Δρόσου 65 ° F
Υγρασία 79%
Rainfall 0.00 in
Snow Depth Not available.
Υπεριώδης ακτινοβολία (UV) 0 out of 12
Pollen 1.40 out of 12
Air Quality Not available.
Flu Activity Not available.
METAR KUZA 021154Z AUTO 23008KT 7SM FEW075 BKN100 OVC120 22/19 A2999 RMK AO2 SLP142 T02220189 10233 20217 53011

More Conditions Fewer Conditions

10-Day Weather Forecast

×

Almanac

Αστρονομία

Jul. 02, 2015 Rise Set
Actual Time
Civil Twilight
Nautical Twilight
Astronomical Twilight
Moon
Length Of Visible Light
Διάρκεια ημέρας
Tomorrow will be .
, % of the Moon is Illuminated

Today's Extremes

State Highs State Lows

Community

WunderPhotos

Upload Photos

1,834,452 photos uploaded!

WunderBlogs® & News

Nearby

Air Quality

  Air Quality AQ Index Pollutant
Not available.

Snow Depth

Station Depth Elevation

Earthquake Activity

City Distance Mag. Time & Date
Minimum magnitude displayed is 2.5.

Coastal Water Temperatures

Τοποθεσία Θερμοκρασία

Stations

Nearby Weather Stations

Station Location Temp Δείκτης Ψυχρότητας Σημείο Δρόσου Υγρασία Ανεμος Precip. Elev Ενημερώθηκε Type